Terminal Aerodrome Forecast
Issued by NWS

Home | Current Version | Previous Version | Text Only | Print | Product List | Glossary On
Versions: 1 2 3 4 5 6 7 8 9 10 11 12 13 14 15 16 17 18 19
000
FTUS43 KLSX 141500 AAA
TAFSUS
TAF AMD
KSUS 141500Z 1415/1512 30014G22KT P6SM OVC016
     FM142100 33016G24KT 5SM -RA OVC020
      TEMPO 1500/1502 2SM -RASN OVC010
     FM150200 33014KT P6SM BKN035
     FM150600 32007KT P6SM SKC=

USA.gov is the U.S. government's official web portal to all federal, state and local government web resources and services.